Time;durP1;ratioP1;P1;durP2;ratioP2;P2;SDS_P1;SDS_P2;PMS_P1;PMS_P2;Temp;Humidity;BMP_temperature;BMP_pressure;BME280_temperature;BME280_humidity;BME280_pressure;Samples;Min_cycle;Max_cycle;Signal;HPM_P1;HPM_P2
2021/10/27 00:02:23;;;;;;;3.45;2.20;;;;;;;18.27;48.56;101917.50;5061800;28;20076;-68
2021/10/27 00:04:49;;;;;;;3.33;1.85;;;;;;;18.28;48.92;101922.00;5067577;28;20135;-68
2021/10/27 00:07:16;;;;;;;3.25;1.77;;;;;;;18.29;48.97;101926.50;5066632;28;20533;-68
2021/10/27 00:09:43;;;;;;;3.97;1.95;;;;;;;18.29;48.78;101921.00;5061172;28;20170;-68
2021/10/27 00:12:09;;;;;;;3.67;1.80;;;;;;;18.30;48.87;101922.75;5060824;28;20079;-68
2021/10/27 00:14:36;;;;;;;4.20;1.63;;;;;;;18.30;48.78;101925.50;5064846;28;20500;-68
2021/10/27 00:17:03;;;;;;;2.42;1.70;;;;;;;18.31;48.73;101923.63;5069321;28;20103;-68
2021/10/27 00:19:30;;;;;;;2.35;1.60;;;;;;;18.32;49.19;101917.13;5069323;28;20094;-68
2021/10/27 00:21:56;;;;;;;2.97;1.80;;;;;;;18.33;49.04;101918.88;5072040;28;20133;-68
2021/10/27 00:24:23;;;;;;;3.35;1.88;;;;;;;18.32;49.10;101920.75;5072161;28;20048;-68
2021/10/27 00:26:49;;;;;;;3.00;1.85;;;;;;;18.33;49.17;101910.63;5071536;28;20577;-68
2021/10/27 00:29:17;;;;;;;3.20;1.70;;;;;;;18.34;49.04;101917.88;5050399;28;20475;-68
2021/10/27 00:31:44;;;;;;;3.72;1.80;;;;;;;18.33;48.97;101911.50;5071270;28;20060;-68
2021/10/27 00:34:10;;;;;;;3.45;1.90;;;;;;;18.34;48.92;101929.75;5055413;28;20698;-68
2021/10/27 00:36:37;;;;;;;2.47;1.73;;;;;;;18.35;49.49;101911.38;5070807;28;20102;-68
2021/10/27 00:39:04;;;;;;;3.63;1.80;;;;;;;18.36;49.33;101919.50;5065633;28;20395;-68
2021/10/27 00:41:31;;;;;;;4.25;2.33;;;;;;;18.35;49.27;101922.38;5073827;28;20094;-68
2021/10/27 00:43:58;;;;;;;4.35;2.00;;;;;;;18.36;49.56;101914.00;5069804;28;20045;-68
2021/10/27 00:46:25;;;;;;;3.47;1.65;;;;;;;18.36;49.29;101911.25;5055049;28;20041;-68
2021/10/27 00:48:52;;;;;;;3.55;1.90;;;;;;;18.37;49.13;101909.34;5063867;28;20439;-68
2021/10/27 00:51:19;;;;;;;3.40;1.77;;;;;;;18.38;49.46;101916.59;5048950;28;20076;-68
2021/10/27 00:53:47;;;;;;;4.13;1.85;;;;;;;18.39;49.09;101921.09;5072224;28;20561;-68
2021/10/27 00:56:14;;;;;;;3.05;1.88;;;;;;;18.38;49.47;101917.47;5069006;28;20491;-68
2021/10/27 00:58:41;;;;;;;4.22;1.70;;;;;;;18.38;49.03;101928.47;5066328;28;20080;-68
2021/10/27 01:01:08;;;;;;;4.53;2.08;;;;;;;18.38;48.94;101917.47;5049228;28;20134;-68
2021/10/27 01:03:36;;;;;;;3.65;2.00;;;;;;;18.39;49.32;101913.72;5071063;28;20629;-68
2021/10/27 01:06:06;;;;;;;3.35;2.00;;;;;;;18.41;49.59;101928.25;5042352;28;20080;-68
2021/10/27 01:08:34;;;;;;;3.55;1.58;;;;;;;18.40;49.48;101926.50;5064266;28;20052;-67
2021/10/27 01:11:01;;;;;;;3.72;1.70;;;;;;;18.40;49.32;101923.75;5061601;28;20076;-68
2021/10/27 01:13:27;;;;;;;4.03;1.98;;;;;;;18.40;49.26;101915.47;5067612;28;20128;-68
2021/10/27 01:15:55;;;;;;;3.40;1.60;;;;;;;18.42;49.21;101912.63;5068357;28;20090;-68
2021/10/27 01:18:23;;;;;;;2.97;1.60;;;;;;;18.41;49.08;101914.50;5066954;28;20542;-68
2021/10/27 01:20:49;;;;;;;3.55;1.58;;;;;;;18.42;49.26;101921.75;5045023;28;20077;-67
2021/10/27 01:23:16;;;;;;;3.65;1.80;;;;;;;18.42;49.23;101915.38;5053096;28;20064;-68
2021/10/27 01:25:43;;;;;;;2.88;1.70;;;;;;;18.43;49.03;101917.13;5066789;28;20064;-68
2021/10/27 01:28:09;;;;;;;2.35;1.55;;;;;;;18.43;49.15;101915.25;5059321;28;20110;-67
2021/10/27 01:30:36;;;;;;;2.47;1.40;;;;;;;18.42;49.17;101913.50;5041746;28;20060;-68
2021/10/27 01:33:02;;;;;;;2.45;1.35;;;;;;;18.44;49.02;101913.38;5067853;28;20123;-68
2021/10/27 01:35:29;;;;;;;2.38;1.40;;;;;;;18.45;49.24;101912.34;5070292;28;20045;-68
2021/10/27 01:37:56;;;;;;;3.25;1.50;;;;;;;18.45;49.66;101909.59;5059942;28;20444;-68
2021/10/27 01:40:23;;;;;;;2.28;1.30;;;;;;;18.44;49.51;101910.63;5057737;28;20049;-68
2021/10/27 01:42:54;;;;;;;2.63;1.30;;;;;;;18.46;49.21;101914.09;5071276;28;20487;-68
2021/10/27 01:45:27;;;;;;;2.97;1.17;;;;;;;18.47;49.28;101911.22;5066264;28;20048;-68
2021/10/27 01:47:53;;;;;;;2.10;1.35;;;;;;;18.43;49.24;101908.88;5070158;28;20125;-67
2021/10/27 01:50:20;;;;;;;2.72;1.25;;;;;;;18.45;49.17;101901.34;5048940;28;20495;-68
2021/10/27 01:52:47;;;;;;;3.20;1.25;;;;;;;18.45;49.71;101901.34;5064698;28;20044;-67
2021/10/27 01:55:13;;;;;;;2.20;1.30;;;;;;;18.46;49.59;101903.09;5067157;28;20072;-67
2021/10/27 01:57:40;;;;;;;2.65;1.10;;;;;;;18.45;49.62;101893.97;5046737;28;20052;-69
2021/10/27 02:00:08;;;;;;;2.92;1.40;;;;;;;18.46;49.23;101894.84;5051059;28;20119;-67
2021/10/27 02:02:35;;;;;;;4.43;1.60;;;;;;;18.44;49.56;101889.50;5063828;28;20101;-67
2021/10/27 02:05:02;;;;;;;3.30;1.40;;;;;;;18.45;49.42;101893.09;5049995;28;20865;-67
2021/10/27 02:07:29;;;;;;;2.30;1.13;;;;;;;18.46;49.16;101897.59;5061992;28;20040;-67
2021/10/27 02:09:56;;;;;;;2.10;1.23;;;;;;;18.44;49.55;101881.25;5061046;28;20076;-67
2021/10/27 02:12:23;;;;;;;2.45;1.25;;;;;;;18.46;49.66;101883.84;5065506;28;20094;-67
2021/10/27 02:14:50;;;;;;;2.67;1.25;;;;;;;18.44;49.22;101886.75;5058755;28;20756;-67
2021/10/27 02:17:16;;;;;;;3.03;1.42;;;;;;;18.45;49.75;101888.47;5059939;28;20139;-67
2021/10/27 02:19:43;;;;;;;2.40;1.20;;;;;;;18.45;49.61;101887.59;5065740;28;20659;-67
2021/10/27 02:22:10;;;;;;;2.30;1.30;;;;;;;18.45;49.68;101885.72;5064201;28;20424;-67
2021/10/27 02:24:36;;;;;;;3.05;1.40;;;;;;;18.45;49.28;101885.72;5053219;28;20115;-67
2021/10/27 02:27:03;;;;;;;2.08;1.20;;;;;;;18.45;49.48;101885.72;5061524;28;20076;-67
2021/10/27 02:29:30;;;;;;;2.72;1.50;;;;;;;18.45;49.31;101887.59;5050815;28;20447;-67
2021/10/27 02:31:57;;;;;;;2.63;1.40;;;;;;;18.45;49.58;101888.47;5047430;28;20075;-66
2021/10/27 02:34:24;;;;;;;3.40;1.45;;;;;;;18.45;49.37;101893.97;5046371;28;20040;-67
2021/10/27 02:36:50;;;;;;;3.00;1.30;;;;;;;18.46;49.64;101886.59;5065813;28;20127;-66
2021/10/27 02:39:17;;;;;;;2.13;1.38;;;;;;;18.45;49.46;101893.09;5061678;28;20525;-67
2021/10/27 02:41:44;;;;;;;3.20;1.23;;;;;;;18.45;49.24;101896.72;5065008;28;20053;-67
2021/10/27 02:44:10;;;;;;;2.72;1.35;;;;;;;18.45;49.56;101893.09;5063810;28;20068;-66
2021/10/27 02:46:37;;;;;;;3.38;1.60;;;;;;;18.45;49.36;101899.47;5049086;28;20087;-67
2021/10/27 02:49:04;;;;;;;4.25;1.40;;;;;;;18.44;49.56;101892.25;5065362;28;20048;-67
2021/10/27 02:51:31;;;;;;;3.13;1.10;;;;;;;18.44;49.31;101888.63;5067906;28;20110;-67
2021/10/27 02:53:57;;;;;;;2.42;1.38;;;;;;;18.44;49.41;101889.50;5058143;28;20045;-67
2021/10/27 02:56:24;;;;;;;4.22;1.58;;;;;;;18.44;49.47;101889.50;5061522;28;20064;-67
2021/10/27 02:58:51;;;;;;;2.40;1.30;;;;;;;18.43;49.15;101887.75;5063206;28;20053;-67
2021/10/27 03:01:18;;;;;;;3.35;1.45;;;;;;;18.43;49.44;101892.38;5062423;28;20041;-67
2021/10/27 03:03:45;;;;;;;3.63;1.60;;;;;;;18.44;49.62;101891.38;5056695;28;20431;-67
2021/10/27 03:06:12;;;;;;;3.38;1.70;;;;;;;18.42;49.18;101899.75;5059009;28;20137;-67
2021/10/27 03:08:38;;;;;;;2.35;1.25;;;;;;;18.41;49.19;101887.00;5054572;28;20103;-66
2021/10/27 03:11:06;;;;;;;3.38;1.60;;;;;;;18.41;49.63;101889.75;5038190;28;20103;-67
2021/10/27 03:13:32;;;;;;;3.10;1.50;;;;;;;18.41;49.33;101895.25;5037384;28;20049;-67
2021/10/27 03:15:59;;;;;;;2.75;1.42;;;;;;;18.41;49.43;101887.00;5041545;28;20057;-67
2021/10/27 03:18:26;;;;;;;2.67;1.40;;;;;;;18.41;49.20;101889.75;5060331;28;20127;-67
2021/10/27 03:20:52;;;;;;;3.85;1.60;;;;;;;18.41;49.49;101888.88;5061478;28;20087;-67
2021/10/27 03:23:19;;;;;;;2.65;1.38;;;;;;;18.40;49.57;101885.25;5043813;28;20076;-67
2021/10/27 03:25:46;;;;;;;4.55;1.70;;;;;;;18.40;49.53;101900.88;5045145;28;20132;-67
2021/10/27 03:28:12;;;;;;;3.80;1.55;;;;;;;18.41;49.43;101897.13;5063243;28;20044;-67
2021/10/27 03:30:39;;;;;;;3.88;1.38;;;;;;;18.41;49.20;101902.63;5055019;28;20052;-67
2021/10/27 03:33:06;;;;;;;2.70;1.52;;;;;;;18.40;49.58;101904.50;5064410;28;20049;-67
2021/10/27 03:35:33;;;;;;;2.22;1.30;;;;;;;18.40;49.17;101900.88;5059636;28;20075;-67
2021/10/27 03:38:00;;;;;;;3.65;1.40;;;;;;;18.40;49.56;101903.63;5064224;28;20056;-67
2021/10/27 03:40:27;;;;;;;2.75;1.48;;;;;;;18.39;49.05;101899.97;5058766;28;20126;-67
2021/10/27 03:42:54;;;;;;;2.88;1.42;;;;;;;18.39;49.07;101899.09;5067575;28;20044;-67
2021/10/27 03:45:21;;;;;;;2.55;1.40;;;;;;;18.40;49.14;101906.38;5054354;28;20079;-67
2021/10/27 03:47:47;;;;;;;3.60;1.50;;;;;;;18.39;49.35;101904.59;5062171;28;20568;-67
2021/10/27 03:50:14;;;;;;;2.53;1.50;;;;;;;18.38;49.29;101903.72;5060725;28;20041;-67
2021/10/27 03:52:42;;;;;;;3.65;1.60;;;;;;;18.39;49.45;101899.09;5043622;28;20059;-67
2021/10/27 03:55:10;;;;;;;2.65;1.50;;;;;;;18.37;49.62;101893.72;5059296;28;20080;-67
2021/10/27 03:57:37;;;;;;;4.00;1.80;;;;;;;18.38;49.32;101908.34;5058689;28;20102;-67
2021/10/27 04:00:08;;;;;;;4.18;1.70;;;;;;;18.40;49.90;101907.22;5063500;28;20052;-67
2021/10/27 04:02:39;;;;;;;3.05;1.70;;;;;;;18.39;49.94;101908.22;5067581;28;20072;-67
2021/10/27 04:05:07;;;;;;;4.78;1.80;;;;;;;18.38;49.83;101900.09;5055776;28;20053;-67
2021/10/27 04:07:36;;;;;;;3.78;1.70;;;;;;;18.36;49.56;101911.25;5063662;28;20040;-66
2021/10/27 04:10:09;;;;;;;3.67;1.90;;;;;;;18.39;49.78;101912.84;5043972;28;20060;-66
2021/10/27 04:12:36;;;;;;;2.88;1.60;;;;;;;18.35;49.81;101925.13;5056504;28;20444;-66
2021/10/27 04:15:05;;;;;;;3.10;1.60;;;;;;;18.38;49.46;101922.97;5057817;28;20107;-67
2021/10/27 04:17:32;;;;;;;3.58;1.88;;;;;;;18.36;49.62;101926.88;5064817;28;20455;-67
2021/10/27 04:19:59;;;;;;;4.05;2.08;;;;;;;18.35;49.30;101923.25;5066172;28;20143;-67
2021/10/27 04:22:26;;;;;;;3.53;1.92;;;;;;;18.36;49.79;101922.25;5061578;28;20045;-67
2021/10/27 04:24:52;;;;;;;4.55;1.80;;;;;;;18.35;49.38;101915.00;5054428;28;20045;-67
2021/10/27 04:27:19;;;;;;;4.43;1.65;;;;;;;18.36;49.29;101922.25;5058053;28;20048;-66
2021/10/27 04:29:46;;;;;;;3.47;1.80;;;;;;;18.35;49.49;101917.75;5062767;28;20048;-66
2021/10/27 04:32:12;;;;;;;3.03;1.83;;;;;;;18.35;49.73;101926.00;5063718;28;20044;-67
2021/10/27 04:34:39;;;;;;;3.63;1.55;;;;;;;18.35;49.41;101930.63;5061464;28;20484;-67
2021/10/27 04:37:07;;;;;;;4.03;2.08;;;;;;;18.35;49.55;101925.13;5049978;28;20068;-67
2021/10/27 04:39:34;;;;;;;3.90;1.85;;;;;;;18.34;49.81;101931.63;5062825;28;20132;-67
2021/10/27 04:42:02;;;;;;;3.33;1.60;;;;;;;18.35;49.63;101930.63;5056367;28;20080;-67
2021/10/27 04:44:30;;;;;;;3.65;1.70;;;;;;;18.34;49.42;101928.88;5038431;28;20053;-67
2021/10/27 04:47:01;;;;;;;3.55;1.90;;;;;;;18.33;49.85;101917.00;5065267;28;20048;-67
2021/10/27 04:49:28;;;;;;;2.72;1.60;;;;;;;18.33;49.63;101917.00;5041872;28;20123;-68
2021/10/27 04:51:54;;;;;;;4.93;1.75;;;;;;;18.34;49.77;101926.13;5041355;28;20414;-67
2021/10/27 04:54:21;;;;;;;3.30;2.13;;;;;;;18.33;49.30;101921.63;5060613;28;20053;-67
2021/10/27 04:56:48;;;;;;;3.67;1.73;;;;;;;18.33;49.89;101919.75;5063454;28;20407;-67
2021/10/27 04:59:14;;;;;;;3.15;1.70;;;;;;;18.33;49.55;101925.25;5055998;28;20068;-67
2021/10/27 05:01:48;;;;;;;4.68;1.95;;;;;;;18.34;49.60;101923.38;5063010;28;20141;-67
2021/10/27 05:04:15;;;;;;;4.30;2.03;;;;;;;18.33;49.75;101925.25;5060329;28;20681;-67
2021/10/27 05:06:42;;;;;;;3.20;1.90;;;;;;;18.33;49.44;101928.00;5060495;28;20057;-67
2021/10/27 05:09:09;;;;;;;4.15;1.80;;;;;;;18.33;49.83;101933.50;5060942;28;20071;-67
2021/10/27 05:11:36;;;;;;;3.10;1.70;;;;;;;18.33;49.87;101930.75;5061889;28;20131;-66
2021/10/27 05:14:03;;;;;;;3.50;1.70;;;;;;;18.32;49.43;101928.13;5059489;28;20480;-67
2021/10/27 05:16:29;;;;;;;3.55;1.70;;;;;;;18.32;49.74;101929.00;5059328;28;20056;-66
2021/10/27 05:18:56;;;;;;;2.25;1.52;;;;;;;18.33;49.82;101932.63;5053139;28;20548;-67
2021/10/27 05:21:22;;;;;;;2.88;1.60;;;;;;;18.33;49.43;101936.25;5061136;28;20128;-67
2021/10/27 05:23:49;;;;;;;3.20;1.80;;;;;;;18.32;49.51;101926.25;5061028;28;20071;-66
2021/10/27 05:26:16;;;;;;;3.00;1.73;;;;;;;18.32;49.38;101925.38;5059937;28;20095;-66
2021/10/27 05:28:42;;;;;;;3.17;1.60;;;;;;;18.33;50.09;101922.50;5047928;28;20052;-66
2021/10/27 05:31:10;;;;;;;2.42;1.50;;;;;;;18.33;49.49;101918.88;5066458;28;20076;-66
2021/10/27 05:33:36;;;;;;;4.75;1.90;;;;;;;18.32;49.58;101920.75;5064439;28;20060;-66
2021/10/27 05:36:03;;;;;;;3.05;1.90;;;;;;;18.33;49.79;101916.13;5056951;28;20582;-66
2021/10/27 05:38:30;;;;;;;3.65;1.65;;;;;;;18.33;49.55;101922.50;5063352;28;20140;-66
2021/10/27 05:40:57;;;;;;;3.80;2.05;;;;;;;18.33;49.87;101916.13;5068089;28;20036;-66
2021/10/27 05:43:25;;;;;;;3.72;1.60;;;;;;;18.32;49.74;101915.25;5065573;28;20091;-67
2021/10/27 05:45:56;;;;;;;2.95;1.70;;;;;;;18.32;49.48;101918.00;5051015;28;20130;-66
2021/10/27 05:48:28;;;;;;;4.35;1.92;;;;;;;18.32;49.54;101909.75;5060624;28;20048;-66
2021/10/27 05:51:12;;;;;;;2.92;1.85;;;;;;;18.32;49.74;101922.63;5062884;28;20557;-66
2021/10/27 05:56:28;;;;;;;3.85;1.70;;;;;;;18.30;49.43;101921.88;5074380;28;20052;-66
2021/10/27 05:58:54;;;;;;;3.25;1.90;;;;;;;18.31;49.69;101921.75;5066683;28;20076;-67
2021/10/27 06:01:21;;;;;;;3.25;1.80;;;;;;;18.31;49.79;101926.38;5059029;28;20162;-67
2021/10/27 06:03:48;;;;;;;3.72;1.83;;;;;;;18.31;49.70;101934.63;5062425;28;20049;-67
2021/10/27 06:06:15;;;;;;;3.65;2.00;;;;;;;18.30;49.50;101930.09;5054884;28;20079;-68
2021/10/27 06:08:42;;;;;;;3.58;1.70;;;;;;;18.30;50.03;101932.84;5058833;28;20049;-67
2021/10/27 06:11:11;;;;;;;3.28;1.67;;;;;;;18.29;49.50;101931.09;5062573;28;20045;-67
2021/10/27 06:13:47;;;;;;;3.50;1.70;;;;;;;18.31;49.33;101935.50;5061769;28;20111;-67
2021/10/27 06:16:15;;;;;;;2.95;1.67;;;;;;;18.29;49.90;101940.22;5063509;28;20420;-67
2021/10/27 06:18:42;;;;;;;3.85;2.00;;;;;;;18.28;49.72;101935.75;5059301;28;20059;-67
2021/10/27 06:21:12;;;;;;;4.95;1.85;;;;;;;18.29;49.55;101936.59;5042508;28;20098;-67
2021/10/27 06:23:40;;;;;;;3.55;1.63;;;;;;;18.26;49.46;101937.75;5045764;28;20118;-66
2021/10/27 06:26:07;;;;;;;3.40;1.77;;;;;;;18.25;49.48;101947.88;5047695;28;20087;-66
2021/10/27 06:28:44;;;;;;;4.78;2.38;;;;;;;18.28;49.74;101951.38;5061457;28;20138;-67
2021/10/27 06:31:17;;;;;;;3.10;1.65;;;;;;;18.26;49.80;101946.00;5059198;28;20450;-67
2021/10/27 06:39:11;;;;;;;4.63;1.65;;;;;;;18.25;49.78;101950.63;5058534;28;20056;-67
2021/10/27 06:47:09;;;;;;;3.40;1.55;;;;;;;18.24;49.56;101970.00;5052207;28;20076;-67
2021/10/27 06:49:35;;;;;;;2.67;1.50;;;;;;;18.24;49.23;101970.00;5058330;28;20095;-67
2021/10/27 06:52:03;;;;;;;4.43;1.45;;;;;;;18.24;49.51;101976.38;5058030;28;20059;-67
2021/10/27 06:54:30;;;;;;;3.40;1.67;;;;;;;18.24;49.56;101972.72;5042589;28;20040;-67
2021/10/27 06:56:57;;;;;;;3.20;1.67;;;;;;;18.24;49.71;101976.38;5061319;28;20455;-67
2021/10/27 06:59:47;;;;;;;3.35;1.73;;;;;;;18.24;49.63;101981.84;5058850;28;20499;-67
2021/10/27 07:14:58;;;;;;;4.65;2.00;;;;;;;18.24;49.43;101975.47;5063888;28;20072;-67
2021/10/27 07:15:36;;;;;;;4.88;1.80;;;;;;;18.22;49.67;101992.09;5061246;28;20098;-67
2021/10/27 07:18:04;;;;;;;2.95;1.60;;;;;;;18.23;49.35;101984.72;5059345;28;20143;-67
2021/10/27 07:20:30;;;;;;;3.20;1.70;;;;;;;18.21;49.37;101990.34;5064568;28;20147;-67
2021/10/27 07:23:00;;;;;;;2.33;1.52;;;;;;;18.22;49.26;101988.47;5057925;28;20106;-67
2021/10/27 07:25:35;;;;;;;3.15;1.58;;;;;;;18.23;49.28;101988.34;5047681;28;20066;-67
2021/10/27 07:28:03;;;;;;;3.25;1.80;;;;;;;18.20;49.64;101999.59;5066664;28;20510;-67
2021/10/27 07:30:30;;;;;;;3.92;1.90;;;;;;;18.20;49.30;101990.50;5063342;28;20495;-67
2021/10/27 07:32:57;;;;;;;4.57;2.13;;;;;;;18.20;49.36;101990.50;5065053;28;20052;-67
2021/10/27 07:35:50;;;;;;;2.58;1.70;;;;;;;18.20;49.22;101994.09;5067856;28;20067;-67
2021/10/27 07:40:57;;;;;;;3.45;1.80;;;;;;;18.18;49.41;102003.47;5070393;28;20089;-67
2021/10/27 07:43:27;;;;;;;3.58;1.90;;;;;;;18.18;49.54;101990.63;5075604;28;20487;-67
2021/10/27 07:45:54;;;;;;;4.38;1.83;;;;;;;18.19;49.29;102000.63;5045538;28;20044;-67
2021/10/27 07:48:21;;;;;;;4.30;1.70;;;;;;;18.18;49.50;102011.72;5052883;28;20077;-67
2021/10/27 07:50:48;;;;;;;3.25;1.58;;;;;;;18.19;49.29;102008.88;5059436;28;20084;-67
2021/10/27 07:53:15;;;;;;;3.83;2.10;;;;;;;18.19;49.38;102014.34;5069196;28;20051;-68
2021/10/27 07:55:44;;;;;;;3.75;1.77;;;;;;;18.21;49.80;102005.97;5041965;28;20061;-68
2021/10/27 07:58:15;;;;;;;3.80;1.75;;;;;;;18.21;49.51;102019.72;5055569;28;20957;-68
2021/10/27 08:00:41;;;;;;;3.08;1.67;;;;;;;18.20;49.70;102016.06;5028859;28;20060;-68
2021/10/27 08:03:10;;;;;;;3.78;1.50;;;;;;;18.22;49.36;102010.47;5061745;28;20472;-67
2021/10/27 08:05:42;;;;;;;3.85;1.90;;;;;;;18.23;49.50;102020.47;5065333;28;20502;-67
2021/10/27 08:08:11;;;;;;;2.92;1.55;;;;;;;18.21;49.68;102017.84;5056851;28;20118;-67
2021/10/27 08:10:39;;;;;;;3.13;1.63;;;;;;;18.24;49.62;102031.34;5049036;28;20117;-67
2021/10/27 08:13:07;;;;;;;2.70;1.60;;;;;;;18.24;49.62;102028.59;5061935;28;20045;-67
2021/10/27 08:15:39;;;;;;;3.17;1.67;;;;;;;18.23;49.57;102017.72;5046606;28;20492;-67
2021/10/27 08:18:10;;;;;;;4.00;1.83;;;;;;;18.27;49.52;102019.22;5048914;28;20083;-67
2021/10/27 08:20:37;;;;;;;3.75;2.00;;;;;;;18.26;49.40;102017.47;5042327;28;20557;-67
2021/10/27 08:23:07;;;;;;;3.60;1.75;;;;;;;18.26;49.47;102022.97;5044467;28;20056;-68
2021/10/27 08:28:04;;;;;;;3.05;1.67;;;;;;;18.29;49.19;102022.72;5059845;28;20127;-67
2021/10/27 08:30:42;;;;;;;3.30;1.55;;;;;;;18.29;49.41;102022.72;5059033;28;20040;-68
2021/10/27 08:33:20;;;;;;;2.70;1.50;;;;;;;18.29;49.05;102030.97;5039133;28;20052;-67
2021/10/27 08:35:48;;;;;;;2.65;1.58;;;;;;;18.30;48.82;102020.84;5072212;28;20074;-67
2021/10/27 08:38:15;;;;;;;3.28;1.60;;;;;;;18.31;49.46;102028.09;5059728;28;20764;-67
2021/10/27 08:40:48;;;;;;;2.47;1.50;;;;;;;18.33;48.95;102024.22;5050986;28;20088;-67
2021/10/27 08:43:14;;;;;;;2.70;1.42;;;;;;;18.28;49.24;102037.47;5050508;28;20440;-67
2021/10/27 08:45:43;;;;;;;2.35;1.60;;;;;;;18.30;48.97;102029.97;5038271;28;20049;-67
2021/10/27 08:48:12;;;;;;;3.67;1.83;;;;;;;18.31;49.11;102033.59;5064072;28;20087;-67
2021/10/27 08:50:40;;;;;;;3.28;1.55;;;;;;;18.31;49.38;102028.97;5064895;28;20044;-67
2021/10/27 08:53:11;;;;;;;2.97;1.70;;;;;;;18.31;49.31;102028.97;5046052;28;20059;-67
2021/10/27 08:55:40;;;;;;;3.13;1.60;;;;;;;18.30;48.91;102021.72;5057629;28;20076;-67
2021/10/27 08:58:08;;;;;;;5.97;1.70;;;;;;;18.32;48.87;102030.72;5069209;28;20076;-67
2021/10/27 09:00:41;;;;;;;2.47;1.60;;;;;;;18.32;49.15;102025.22;5056951;28;20585;-67
2021/10/27 09:09:23;;;;;;;3.80;1.48;;;;;;;18.31;49.04;102028.97;5055957;28;20041;-67
2021/10/27 09:37:54;;;;;;;3.63;1.70;;;;;;;18.39;49.13;102029.22;5060246;28;20083;-66
2021/10/27 09:42:51;;;;;;;3.70;1.80;;;;;;;18.38;49.26;102032.09;5079006;28;20430;-67
2021/10/27 10:05:11;;;;;;;4.35;1.88;;;;;;;18.46;49.31;102026.84;5059542;28;20037;-66
2021/10/27 10:07:39;;;;;;;3.42;1.70;;;;;;;18.49;49.22;102023.84;5062947;28;20136;-66
2021/10/27 10:10:10;;;;;;;2.92;1.70;;;;;;;18.53;48.85;102028.13;5059907;28;20045;-67
2021/10/27 10:12:44;;;;;;;4.88;1.80;;;;;;;18.55;48.95;102021.47;5084359;28;20044;-67
2021/10/27 10:15:12;;;;;;;2.78;1.60;;;;;;;18.56;49.50;102020.50;5063406;28;20036;-67
2021/10/27 10:17:41;;;;;;;2.30;1.45;;;;;;;18.59;49.14;102016.66;5040901;28;20053;-67
2021/10/27 10:20:11;;;;;;;2.78;1.70;;;;;;;18.62;49.47;102020.00;5060170;28;20519;-66
2021/10/27 10:23:21;;;;;;;2.70;1.50;;;;;;;18.65;49.08;102024.38;5060799;28;20067;-67
2021/10/27 10:25:53;;;;;;;2.28;1.50;;;;;;;18.71;49.12;102017.50;5072511;28;20048;-67
2021/10/27 10:28:26;;;;;;;4.10;1.60;;;;;;;18.72;49.18;102020.13;5045187;28;20143;-68
2021/10/27 10:31:00;;;;;;;2.67;1.55;;;;;;;18.75;48.97;102019.88;5063124;28;20127;-67
2021/10/27 10:33:42;;;;;;;2.22;1.17;;;;;;;18.82;49.43;102025.75;5059268;28;20132;-67
2021/10/27 10:36:25;;;;;;;2.92;1.67;;;;;;;18.83;49.46;102024.75;5054510;28;20047;-67
2021/10/27 11:02:33;;;;;;;2.38;1.40;;;;;;;19.25;49.41;101995.47;5061835;28;20076;-66
2021/10/27 11:25:31;;;;;;;1.85;1.02;;;;;;;19.90;49.27;101987.03;5004902;28;20516;-67
2021/10/27 11:39:40;;;;;;;3.60;0.95;;;;;;;20.29;48.34;101966.06;5053012;28;20412;-67
2021/10/27 11:45:04;;;;;;;1.95;1.30;;;;;;;20.50;47.89;101961.41;5071461;28;20052;-67
2021/10/27 11:47:40;;;;;;;2.55;1.30;;;;;;;20.59;47.55;101961.56;5071693;28;20044;-67
2021/10/27 11:50:11;;;;;;;2.92;1.20;;;;;;;20.65;47.70;101955.47;5043911;28;20514;-67
2021/10/27 11:52:52;;;;;;;2.33;1.05;;;;;;;20.77;47.13;101955.22;5078427;28;20063;-67
2021/10/27 11:55:20;;;;;;;2.75;1.00;;;;;;;20.82;47.55;101941.88;5065017;28;20041;-66
2021/10/27 11:57:53;;;;;;;1.85;1.10;;;;;;;20.93;47.00;101942.72;5048632;28;20118;-67
2021/10/27 12:00:43;;;;;;;1.75;1.13;;;;;;;21.00;47.00;101946.69;5061345;28;20040;-67
2021/10/27 12:03:16;;;;;;;1.90;1.20;;;;;;;21.04;46.91;101932.44;5059235;28;20048;-67
2021/10/27 12:05:58;;;;;;;3.40;1.08;;;;;;;21.14;45.94;101944.38;5051064;28;20735;-66
2021/10/27 12:08:48;;;;;;;2.23;1.20;;;;;;;21.15;47.12;101936.97;5056093;28;20072;-66
2021/10/27 12:16:34;;;;;;;1.83;0.90;;;;;;;21.33;46.32;101932.47;5059246;28;20089;-67
2021/10/27 12:19:04;;;;;;;2.95;1.13;;;;;;;21.38;46.42;101930.16;5062382;28;20048;-67
2021/10/27 12:21:31;;;;;;;3.03;1.25;;;;;;;21.43;45.82;101940.75;5061380;28;20098;-67
2021/10/27 12:24:00;;;;;;;2.13;1.30;;;;;;;21.45;45.69;101933.19;5068024;28;20080;-67
2021/10/27 12:26:28;;;;;;;2.53;1.13;;;;;;;21.48;45.43;101925.50;5066044;28;20072;-67
2021/10/27 12:29:16;;;;;;;2.45;1.20;;;;;;;21.53;44.28;101919.53;5062423;28;20759;-67
2021/10/27 12:31:45;;;;;;;2.08;1.20;;;;;;;21.50;45.25;101919.81;5069410;28;20080;-67
2021/10/27 12:34:25;;;;;;;2.47;1.27;;;;;;;21.54;44.28;101924.91;5047531;28;20053;-67
2021/10/27 12:36:54;;;;;;;2.53;1.15;;;;;;;21.51;45.25;101925.19;5053505;28;20045;-66
2021/10/27 12:39:31;;;;;;;2.53;1.30;;;;;;;21.53;44.68;101925.91;5063234;28;20049;-67
2021/10/27 12:42:04;;;;;;;2.28;1.00;;;;;;;21.52;45.13;101917.78;5062959;28;20048;-67
2021/10/27 12:44:33;;;;;;;2.00;1.20;;;;;;;21.53;44.58;101920.38;5058218;28;20068;-67
2021/10/27 12:47:16;;;;;;;3.72;1.27;;;;;;;21.52;44.46;101915.88;5056448;28;20475;-67
2021/10/27 12:49:48;;;;;;;2.05;1.05;;;;;;;21.51;44.67;101908.59;5039006;28;20049;-66
2021/10/27 12:52:30;;;;;;;3.05;1.13;;;;;;;21.49;44.64;101907.91;5059267;28;20127;-67
2021/10/27 12:55:13;;;;;;;1.95;1.00;;;;;;;21.50;44.58;101909.63;5059233;28;20128;-67
2021/10/27 12:57:55;;;;;;;2.50;1.20;;;;;;;21.53;44.65;101905.69;5072778;28;20045;-67
2021/10/27 13:00:35;;;;;;;4.03;1.40;;;;;;;21.53;44.07;101898.28;5060204;28;20114;-66
2021/10/27 13:03:55;;;;;;;3.10;1.30;;;;;;;21.49;44.35;101894.09;5060568;28;20464;-67
2021/10/27 13:22:36;;;;;;;2.38;1.17;;;;;;;21.55;44.41;101885.19;5066654;28;20399;-67
2021/10/27 13:30:56;;;;;;;1.75;1.13;;;;;;;21.57;44.41;101876.75;5069478;28;20510;-66
2021/10/27 13:33:24;;;;;;;1.33;1.00;;;;;;;21.55;44.56;101887.97;5063362;28;20106;-67
2021/10/27 13:35:51;;;;;;;2.75;1.23;;;;;;;21.56;44.28;101881.41;5064474;28;20102;-67
2021/10/27 13:38:20;;;;;;;2.35;1.00;;;;;;;21.57;44.13;101885.06;5058698;28;20049;-67
2021/10/27 13:40:48;;;;;;;2.35;1.00;;;;;;;21.56;44.08;101888.84;5065623;28;20052;-67
2021/10/27 13:45:52;;;;;;;2.75;1.00;;;;;;;21.57;44.36;101879.53;5060806;28;20111;-67
2021/10/27 13:48:33;;;;;;;2.38;1.10;;;;;;;21.55;44.12;101881.56;5064885;28;20059;-67
2021/10/27 14:07:49;;;;;;;2.38;1.05;;;;;;;21.49;44.46;101860.94;5055331;28;20115;-67
2021/10/27 14:13:14;;;;;;;2.60;1.08;;;;;;;21.51;44.22;101852.47;5068680;28;20101;-67
2021/10/27 15:19:38;;;;;;;2.88;1.20;;;;;;;21.58;44.00;101831.50;5048268;28;20095;-67
2021/10/27 15:30:08;;;;;;;3.53;1.25;;;;;;;21.56;43.66;101828.91;5053509;28;20125;-68
2021/10/27 15:33:17;;;;;;;2.30;1.35;;;;;;;21.56;43.86;101826.16;5072273;28;20134;-67
2021/10/27 15:41:16;;;;;;;2.25;1.10;;;;;;;21.53;43.74;101820.91;5062024;28;20040;-68
2021/10/27 15:52:05;;;;;;;2.42;1.15;;;;;;;21.46;43.97;101819.78;5022086;28;20071;-68
2021/10/27 15:54:32;;;;;;;1.73;1.17;;;;;;;21.46;43.98;101824.41;5046391;28;20060;-67
2021/10/27 15:57:00;;;;;;;2.55;1.15;;;;;;;21.45;43.75;101837.38;5061819;28;20041;-67
2021/10/27 15:59:28;;;;;;;3.30;1.60;;;;;;;21.44;43.81;101832.84;5052099;28;20065;-67
2021/10/27 16:01:54;;;;;;;2.83;1.25;;;;;;;;;;5056334;28;20081;-67
2021/10/27 16:04:21;;;;;;;3.60;1.40;;;;;;;21.40;43.82;101827.78;5063394;28;20043;-67
2021/10/27 16:06:53;;;;;;;3.55;1.25;;;;;;;21.39;43.53;101831.56;5062394;28;20587;-67
2021/10/27 16:09:25;;;;;;;2.30;1.03;;;;;;;21.34;43.81;101826.47;5056364;28;20040;-68
2021/10/27 16:11:51;;;;;;;3.17;1.23;;;;;;;21.33;43.78;101826.66;5057456;28;20307;-67
2021/10/27 16:14:22;;;;;;;2.63;1.40;;;;;;;21.33;43.75;101826.66;5062407;28;20360;-67
2021/10/27 16:16:49;;;;;;;2.70;1.17;;;;;;;21.32;43.75;101833.19;5065644;28;20102;-68